createdAt,value
2018-07-30T00:02:12.563Z,101275.00
2018-07-30T00:04:41.613Z,101273.00
2018-07-30T00:07:10.490Z,101275.00
2018-07-30T00:09:39.133Z,101280.00
2018-07-30T00:12:08.391Z,101283.00
2018-07-30T00:14:37.194Z,101281.00
2018-07-30T00:17:05.999Z,101278.00
2018-07-30T00:19:34.823Z,101288.00
2018-07-30T00:22:06.661Z,101277.00
2018-07-30T00:24:35.790Z,101289.00
2018-07-30T00:27:05.099Z,101287.00
2018-07-30T00:29:34.295Z,101290.00
2018-07-30T00:32:03.105Z,101289.00
2018-07-30T00:34:31.922Z,101288.00
2018-07-30T00:37:00.711Z,101294.00
2018-07-30T00:39:29.517Z,101288.00
2018-07-30T00:41:58.350Z,101294.00
2018-07-30T00:44:27.159Z,101295.00
2018-07-30T00:46:56.327Z,101296.00
2018-07-30T00:49:25.139Z,101287.00
2018-07-30T00:51:54.000Z,101293.00
2018-07-30T00:54:22.913Z,101295.00
2018-07-30T00:56:51.782Z,101290.00
2018-07-30T00:59:20.531Z,101291.00
2018-07-30T01:01:49.358Z,101300.00
2018-07-30T01:04:18.177Z,101298.00
2018-07-30T01:06:47.017Z,101299.00
2018-07-30T01:09:16.235Z,101306.00
2018-07-30T01:11:45.145Z,101301.00
2018-07-30T01:14:15.064Z,101290.00
2018-07-30T01:16:44.886Z,101291.00
2018-07-30T01:19:13.694Z,101288.00
2018-07-30T01:21:42.649Z,101289.00
2018-07-30T01:24:11.396Z,101293.00
2018-07-30T01:26:46.637Z,101285.00
2018-07-30T01:29:15.953Z,101281.00
2018-07-30T01:31:44.775Z,101285.00
2018-07-30T01:34:14.722Z,101292.00
2018-07-30T01:36:43.546Z,101289.00
2018-07-30T01:39:12.377Z,101287.00
2018-07-30T01:41:42.189Z,101297.00
2018-07-30T01:44:10.985Z,101295.00
2018-07-30T01:46:39.797Z,101297.00
2018-07-30T01:49:08.599Z,101299.00
2018-07-30T01:51:37.817Z,101294.00
2018-07-30T01:54:06.645Z,101300.00
2018-07-30T01:56:35.300Z,101290.00
2018-07-30T01:59:04.155Z,101306.00
2018-07-30T02:01:33.016Z,101298.00
2018-07-30T02:04:01.823Z,101297.00
2018-07-30T02:06:30.738Z,101293.00
2018-07-30T02:09:07.394Z,101293.00
2018-07-30T02:11:36.733Z,101286.00
2018-07-30T02:14:06.251Z,101290.00
2018-07-30T02:16:35.389Z,101291.00
2018-07-30T02:19:04.247Z,101295.00
2018-07-30T02:21:32.954Z,101296.00
2018-07-30T02:24:01.974Z,101281.00
2018-07-30T02:26:30.802Z,101294.00
2018-07-30T02:28:59.735Z,101286.00
2018-07-30T02:31:28.551Z,101293.00
2018-07-30T02:33:57.936Z,101285.00
2018-07-30T02:36:26.745Z,101289.00
2018-07-30T02:38:55.578Z,101286.00
2018-07-30T02:41:24.436Z,101280.00
2018-07-30T02:43:53.297Z,101284.00
2018-07-30T02:46:22.091Z,101293.00
2018-07-30T02:48:50.906Z,101293.00
2018-07-30T02:51:19.741Z,101301.00
2018-07-30T02:53:48.559Z,101293.00
2018-07-30T02:56:17.796Z,101307.00
2018-07-30T02:58:46.605Z,101316.00
2018-07-30T03:01:15.430Z,101317.00
2018-07-30T03:03:44.265Z,101315.00
2018-07-30T03:06:13.071Z,101316.00
2018-07-30T03:08:41.878Z,101312.00
2018-07-30T03:11:10.691Z,101314.00
2018-07-30T03:13:39.522Z,101312.00
2018-07-30T03:16:08.371Z,101319.00
2018-07-30T03:18:37.882Z,101324.00
2018-07-30T03:21:07.218Z,101317.00
2018-07-30T03:23:36.027Z,101317.00
2018-07-30T03:26:04.859Z,101310.00
2018-07-30T03:28:33.660Z,101313.00
2018-07-30T03:31:02.496Z,101306.00
2018-07-30T03:33:31.344Z,101302.00
2018-07-30T03:36:00.169Z,101314.00
2018-07-30T03:38:29.539Z,101309.00
2018-07-30T03:40:58.503Z,101315.00
2018-07-30T03:43:27.324Z,101312.00
2018-07-30T03:45:56.125Z,101306.00
2018-07-30T03:48:25.205Z,101314.00
2018-07-30T03:50:54.067Z,101307.00
2018-07-30T03:53:22.869Z,101319.00
2018-07-30T03:55:51.697Z,101312.00
2018-07-30T03:58:20.499Z,101311.00
2018-07-30T04:00:49.338Z,101308.00
2018-07-30T04:03:18.272Z,101312.00
2018-07-30T04:05:46.940Z,101313.00
2018-07-30T04:08:16.053Z,101313.00
2018-07-30T04:10:44.740Z,101316.00
2018-07-30T04:13:13.366Z,101318.00
2018-07-30T04:15:42.161Z,101314.00
2018-07-30T04:18:10.993Z,101315.00
2018-07-30T04:20:40.161Z,101316.00
2018-07-30T04:23:08.985Z,101324.00
2018-07-30T04:25:38.077Z,101172.00
2018-07-30T04:28:06.857Z,101314.00
2018-07-30T04:30:35.722Z,101311.00
2018-07-30T04:33:04.558Z,101311.00
2018-07-30T04:35:33.382Z,101301.00
2018-07-30T04:38:02.182Z,101304.00
2018-07-30T04:40:31.002Z,101306.00
2018-07-30T04:42:59.910Z,101315.00
2018-07-30T04:45:28.792Z,101314.00
2018-07-30T04:47:57.775Z,101306.00
2018-07-30T04:50:26.590Z,101316.00
2018-07-30T04:52:55.391Z,101302.00
2018-07-30T04:55:24.239Z,101304.00
2018-07-30T04:57:53.053Z,101310.00
2018-07-30T05:00:21.917Z,101310.00
2018-07-30T05:02:50.756Z,101311.00
2018-07-30T05:05:19.570Z,101306.00
2018-07-30T05:07:48.385Z,101302.00
2018-07-30T05:10:17.406Z,101308.00
2018-07-30T05:12:46.228Z,101308.00
2018-07-30T05:15:15.047Z,101315.00
2018-07-30T05:17:43.857Z,101314.00
2018-07-30T05:20:12.690Z,101319.00
2018-07-30T05:22:41.967Z,101322.00
2018-07-30T05:25:10.815Z,101320.00
2018-07-30T05:27:39.638Z,101319.00
2018-07-30T05:30:08.458Z,101323.00
2018-07-30T05:32:37.407Z,101330.00
2018-07-30T05:35:06.260Z,101333.00
2018-07-30T05:37:35.066Z,101333.00
2018-07-30T05:40:03.921Z,101340.00
2018-07-30T05:42:32.647Z,101334.00
2018-07-30T05:45:01.468Z,101324.00
2018-07-30T05:47:30.310Z,101329.00
2018-07-30T05:49:59.147Z,101339.00
2018-07-30T05:52:27.946Z,101326.00
2018-07-30T05:54:57.221Z,101333.00
2018-07-30T05:57:26.035Z,101329.00
2018-07-30T05:59:54.916Z,101335.00
2018-07-30T06:02:24.405Z,101341.00
2018-07-30T06:04:53.223Z,101345.00
2018-07-30T06:07:22.044Z,101352.00
2018-07-30T06:09:50.936Z,101348.00
2018-07-30T06:12:19.755Z,101347.00
2018-07-30T06:14:48.589Z,101351.00
2018-07-30T06:17:19.215Z,101346.00
2018-07-30T06:19:50.985Z,101351.00
2018-07-30T06:22:19.859Z,101347.00
2018-07-30T06:24:50.102Z,101359.00
2018-07-30T06:27:18.972Z,101362.00
2018-07-30T06:29:47.746Z,101369.00
2018-07-30T06:32:16.607Z,101359.00
2018-07-30T06:34:45.509Z,101372.00
2018-07-30T06:37:14.728Z,101369.00
2018-07-30T06:39:43.827Z,101376.00
2018-07-30T06:42:12.646Z,101364.00
2018-07-30T06:44:41.457Z,101375.00
2018-07-30T06:47:10.290Z,101376.00
2018-07-30T06:49:39.236Z,101377.00
2018-07-30T06:52:08.175Z,101377.00
2018-07-30T06:54:37.078Z,101377.00
2018-07-30T06:57:06.131Z,101389.00
2018-07-30T06:59:34.986Z,101391.00
2018-07-30T07:02:04.506Z,101386.00
2018-07-30T07:04:33.360Z,101391.00
2018-07-30T07:07:02.200Z,101393.00
2018-07-30T07:09:31.043Z,101384.00
2018-07-30T07:11:59.890Z,101392.00
2018-07-30T07:14:28.942Z,101390.00
2018-07-30T07:16:57.831Z,101390.00
2018-07-30T07:19:26.793Z,101396.00
2018-07-30T07:21:55.661Z,101390.00
2018-07-30T07:24:24.458Z,101393.00
2018-07-30T07:26:53.987Z,101399.00
2018-07-30T07:29:22.772Z,101394.00
2018-07-30T07:31:51.993Z,101391.00
2018-07-30T07:34:20.840Z,101396.00
2018-07-30T07:36:49.651Z,101412.00
2018-07-30T07:39:18.751Z,101406.00
2018-07-30T07:41:47.571Z,101409.00
2018-07-30T07:44:16.386Z,101407.00
2018-07-30T07:46:45.235Z,101403.00
2018-07-30T07:49:14.075Z,101400.00
2018-07-30T07:51:42.888Z,101405.00
2018-07-30T07:54:11.765Z,101418.00
2018-07-30T07:56:40.587Z,101408.00
2018-07-30T07:59:09.447Z,101401.00
2018-07-30T08:01:38.657Z,101398.00
2018-07-30T08:04:07.507Z,101407.00
2018-07-30T08:06:36.341Z,101416.00
2018-07-30T08:09:09.087Z,101412.00
2018-07-30T08:11:38.430Z,101407.00
2018-07-30T08:14:07.521Z,101405.00
2018-07-30T08:16:36.347Z,101406.00
2018-07-30T08:19:05.246Z,101410.00
2018-07-30T08:21:34.091Z,101399.00
2018-07-30T08:24:03.394Z,101403.00
2018-07-30T08:26:32.210Z,101400.00
2018-07-30T08:29:01.527Z,101397.00
2018-07-30T08:31:30.322Z,101402.00
2018-07-30T08:33:59.231Z,101397.00
2018-07-30T08:36:31.080Z,101402.00
2018-07-30T08:39:00.664Z,101409.00
2018-07-30T08:41:29.485Z,101409.00
2018-07-30T08:43:58.558Z,101412.00
2018-07-30T08:46:27.395Z,101400.00
2018-07-30T08:48:56.254Z,101400.00
2018-07-30T08:51:25.031Z,101398.00
2018-07-30T08:53:53.826Z,101406.00
2018-07-30T08:56:22.693Z,101400.00
2018-07-30T08:58:51.503Z,101413.00
2018-07-30T09:01:20.289Z,101412.00
2018-07-30T09:03:49.794Z,101405.00
2018-07-30T09:06:18.936Z,101404.00
2018-07-30T09:08:47.777Z,101414.00
2018-07-30T09:11:16.599Z,101416.00
2018-07-30T09:13:45.423Z,101415.00
2018-07-30T09:16:14.341Z,101416.00
2018-07-30T09:18:43.141Z,101410.00
2018-07-30T09:21:12.819Z,101413.00
2018-07-30T09:23:41.698Z,101412.00
2018-07-30T09:26:10.537Z,101421.00
2018-07-30T09:28:39.570Z,101420.00
2018-07-30T09:31:08.728Z,101416.00
2018-07-30T09:33:37.517Z,101416.00
2018-07-30T09:36:06.326Z,101408.00
2018-07-30T09:38:35.432Z,101415.00
2018-07-30T09:41:04.295Z,101411.00
2018-07-30T09:43:33.151Z,101409.00
2018-07-30T09:46:02.072Z,101412.00
2018-07-30T09:48:30.859Z,101405.00
2018-07-30T09:51:00.204Z,101413.00
2018-07-30T09:53:29.043Z,101412.00
2018-07-30T09:55:58.496Z,101409.00
2018-07-30T09:58:27.331Z,101407.00
2018-07-30T10:01:05.514Z,101413.00
2018-07-30T10:03:34.619Z,101417.00
2018-07-30T10:06:03.532Z,101409.00
2018-07-30T10:08:32.374Z,101418.00
2018-07-30T10:11:01.649Z,101412.00
2018-07-30T10:13:30.503Z,101416.00
2018-07-30T10:15:59.335Z,101412.00
2018-07-30T10:18:28.164Z,101412.00
2018-07-30T10:20:56.973Z,101416.00
2018-07-30T10:23:25.776Z,101408.00
2018-07-30T10:25:54.603Z,101410.00
2018-07-30T10:28:23.425Z,101398.00
2018-07-30T10:30:52.328Z,101398.00
2018-07-30T10:33:21.897Z,101395.00
2018-07-30T10:35:50.718Z,101403.00
2018-07-30T10:38:19.646Z,101400.00
2018-07-30T10:40:48.337Z,101403.00
2018-07-30T10:43:17.229Z,101406.00
2018-07-30T10:45:46.044Z,101402.00
2018-07-30T10:48:14.858Z,101401.00
2018-07-30T10:50:43.703Z,101406.00
2018-07-30T10:53:12.513Z,101399.00
2018-07-30T10:55:42.274Z,101405.00
2018-07-30T10:58:11.421Z,101403.00
2018-07-30T11:00:40.251Z,101398.00
2018-07-30T11:03:09.057Z,101399.00
2018-07-30T11:05:37.918Z,101396.00
2018-07-30T11:08:06.738Z,101399.00
2018-07-30T11:10:35.570Z,101397.00
2018-07-30T11:13:04.374Z,101393.00
2018-07-30T11:15:33.207Z,101407.00
2018-07-30T11:18:02.446Z,101400.00
2018-07-30T11:20:31.241Z,101400.00
2018-07-30T11:23:00.035Z,101405.00
2018-07-30T11:25:28.932Z,101393.00
2018-07-30T11:27:57.724Z,101392.00
2018-07-30T11:30:26.557Z,101389.00
2018-07-30T11:32:55.374Z,101389.00
2018-07-30T11:35:24.687Z,101392.00
2018-07-30T11:37:53.511Z,101393.00
2018-07-30T11:40:22.596Z,101385.00
2018-07-30T11:42:51.467Z,101389.00
2018-07-30T11:45:20.278Z,101388.00
2018-07-30T11:47:49.172Z,101385.00
2018-07-30T11:50:17.979Z,101385.00
2018-07-30T11:52:46.782Z,101390.00
2018-07-30T11:55:15.613Z,101380.00
2018-07-30T11:57:44.454Z,101383.00
2018-07-30T12:00:13.260Z,101389.00
2018-07-30T12:02:42.476Z,101384.00
2018-07-30T12:05:11.291Z,101377.00
2018-07-30T12:07:40.169Z,101382.00
2018-07-30T12:10:09.032Z,101375.00
2018-07-30T12:12:37.844Z,101376.00
2018-07-30T12:15:06.702Z,101369.00
2018-07-30T12:17:35.522Z,101367.00
2018-07-30T12:20:04.591Z,101369.00
2018-07-30T12:22:33.441Z,101366.00
2018-07-30T12:25:02.714Z,101366.00
2018-07-30T12:27:31.522Z,101365.00
2018-07-30T12:30:00.338Z,101368.00
2018-07-30T12:32:29.150Z,101361.00
2018-07-30T12:34:57.870Z,101363.00
2018-07-30T12:37:27.315Z,101360.00
2018-07-30T12:39:56.194Z,101366.00
2018-07-30T12:42:25.010Z,101361.00
2018-07-30T12:44:53.883Z,101365.00
2018-07-30T12:47:23.141Z,101357.00
2018-07-30T12:49:51.946Z,101259.00
2018-07-30T12:52:20.745Z,101371.00
2018-07-30T12:54:49.573Z,101364.00
2018-07-30T12:57:18.375Z,101360.00
2018-07-30T12:59:47.398Z,101358.00
2018-07-30T13:02:19.168Z,101351.00
2018-07-30T13:04:47.957Z,101355.00
2018-07-30T13:07:16.803Z,101344.00
2018-07-30T13:09:46.007Z,101356.00
2018-07-30T13:12:14.823Z,101351.00
2018-07-30T13:14:43.645Z,101347.00
2018-07-30T13:17:12.462Z,101345.00
2018-07-30T13:19:41.277Z,101355.00
2018-07-30T13:22:10.088Z,101349.00
2018-07-30T13:24:38.989Z,101344.00
2018-07-30T13:27:07.852Z,101342.00
2018-07-30T13:29:36.663Z,101349.00
2018-07-30T13:32:05.881Z,101339.00
2018-07-30T13:34:34.679Z,101338.00
2018-07-30T13:37:03.521Z,101330.00
2018-07-30T13:39:32.782Z,101335.00
2018-07-30T13:42:01.624Z,101336.00
2018-07-30T13:44:30.438Z,101334.00
2018-07-30T13:46:59.305Z,101328.00
2018-07-30T13:49:28.219Z,101326.00
2018-07-30T13:51:57.089Z,101315.00
2018-07-30T13:54:26.337Z,101324.00
2018-07-30T13:56:55.083Z,101325.00
2018-07-30T13:59:23.900Z,101322.00
2018-07-30T14:01:52.802Z,101326.00
2018-07-30T14:04:21.668Z,101322.00
2018-07-30T14:06:50.535Z,101322.00
2018-07-30T14:09:19.334Z,101323.00
2018-07-30T14:11:48.153Z,101307.00
2018-07-30T14:14:17.030Z,101319.00
2018-07-30T14:16:46.395Z,101309.00
2018-07-30T14:19:15.232Z,101314.00
2018-07-30T14:21:44.048Z,101304.00
2018-07-30T14:24:12.960Z,101312.00
2018-07-30T14:26:41.993Z,101304.00
2018-07-30T14:29:10.795Z,101298.00
2018-07-30T14:31:39.660Z,101293.00
2018-07-30T14:34:08.462Z,101293.00
2018-07-30T14:36:37.383Z,101287.00
2018-07-30T14:39:09.205Z,101296.00
2018-07-30T14:41:38.602Z,101298.00
2018-07-30T14:44:07.778Z,101298.00
2018-07-30T14:46:36.642Z,101290.00
2018-07-30T14:49:05.459Z,101289.00
2018-07-30T14:51:34.093Z,101287.00
2018-07-30T14:54:02.915Z,101289.00
2018-07-30T14:56:31.755Z,101280.00
2018-07-30T14:59:00.602Z,101298.00
2018-07-30T15:01:29.846Z,101279.00
2018-07-30T15:03:58.668Z,101275.00
2018-07-30T15:06:27.442Z,101271.00
2018-07-30T15:08:56.297Z,101276.00
2018-07-30T15:11:25.135Z,101267.00
2018-07-30T15:13:53.924Z,101275.00
2018-07-30T15:16:23.703Z,101270.00
2018-07-30T15:18:52.735Z,101266.00
2018-07-30T15:21:21.553Z,101269.00
2018-07-30T15:23:50.699Z,101268.00
2018-07-30T15:26:19.542Z,101264.00
2018-07-30T15:28:48.387Z,101258.00
2018-07-30T15:31:17.218Z,101255.00
2018-07-30T15:33:46.065Z,101266.00
2018-07-30T15:36:15.202Z,101268.00
2018-07-30T15:38:44.131Z,101263.00
2018-07-30T15:41:12.965Z,101257.00
2018-07-30T15:43:42.327Z,101258.00
2018-07-30T15:46:11.572Z,101267.00
2018-07-30T15:48:40.400Z,101258.00
2018-07-30T15:51:09.372Z,101266.00
2018-07-30T15:53:38.186Z,101265.00
2018-07-30T15:56:07.397Z,101259.00
2018-07-30T15:58:36.303Z,101257.00
2018-07-30T16:01:05.161Z,101260.00
2018-07-30T16:03:33.971Z,101260.00
2018-07-30T16:06:02.782Z,101269.00
2018-07-30T16:08:32.008Z,101264.00
2018-07-30T16:11:01.526Z,101263.00
2018-07-30T16:13:30.346Z,101266.00
2018-07-30T16:15:59.207Z,101264.00
2018-07-30T16:18:28.060Z,101267.00
2018-07-30T16:20:56.878Z,101269.00
2018-07-30T16:23:25.853Z,101258.00
2018-07-30T16:25:54.529Z,101279.00
2018-07-30T16:28:23.410Z,101267.00
2018-07-30T16:30:52.734Z,101279.00
2018-07-30T16:33:24.490Z,101265.00
2018-07-30T16:35:53.332Z,101270.00
2018-07-30T16:38:22.138Z,101272.00
2018-07-30T16:40:51.045Z,101262.00
2018-07-30T16:43:19.922Z,101259.00
2018-07-30T16:45:49.210Z,101272.00
2018-07-30T16:48:18.127Z,101275.00
2018-07-30T16:50:47.352Z,101268.00
2018-07-30T16:53:16.181Z,101259.00
2018-07-30T16:55:44.983Z,101270.00
2018-07-30T16:58:14.150Z,101270.00
2018-07-30T17:00:42.957Z,101267.00
2018-07-30T17:03:11.775Z,101268.00
2018-07-30T17:05:40.595Z,101265.00
2018-07-30T17:08:09.428Z,101273.00
2018-07-30T17:10:38.246Z,101268.00
2018-07-30T17:13:07.681Z,101271.00
2018-07-30T17:15:36.611Z,101269.00
2018-07-30T17:18:05.516Z,101271.00
2018-07-30T17:20:34.311Z,101267.00
2018-07-30T17:23:03.175Z,101272.00
2018-07-30T17:25:32.056Z,101273.00
2018-07-30T17:28:01.747Z,101276.00
2018-07-30T17:30:30.569Z,101279.00
2018-07-30T17:32:59.426Z,101276.00
2018-07-30T17:35:28.315Z,101276.00
2018-07-30T17:37:57.197Z,101277.00
2018-07-30T17:40:25.994Z,101270.00
2018-07-30T17:42:54.825Z,101279.00
2018-07-30T17:45:23.645Z,101279.00
2018-07-30T17:47:52.828Z,101277.00
2018-07-30T17:50:21.826Z,101285.00
2018-07-30T17:52:50.679Z,101283.00
2018-07-30T17:55:19.592Z,101281.00
2018-07-30T17:57:48.931Z,101285.00
2018-07-30T18:00:17.853Z,101286.00
2018-07-30T18:02:46.707Z,101287.00
2018-07-30T18:05:18.455Z,101290.00
2018-07-30T18:07:49.127Z,101295.00
2018-07-30T18:10:18.019Z,101297.00
2018-07-30T18:12:47.217Z,101302.00
2018-07-30T18:15:16.131Z,101303.00
2018-07-30T18:17:45.103Z,101305.00
2018-07-30T18:20:14.619Z,101298.00
2018-07-30T18:22:43.508Z,101297.00
2018-07-30T18:25:12.386Z,101301.00
2018-07-30T18:27:41.334Z,101306.00
2018-07-30T18:30:10.197Z,101316.00
2018-07-30T18:32:40.042Z,101309.00
2018-07-30T18:35:09.112Z,101321.00
2018-07-30T18:37:38.163Z,101314.00
2018-07-30T18:40:07.236Z,101312.00
2018-07-30T18:42:36.566Z,101311.00
2018-07-30T18:45:07.041Z,101324.00
2018-07-30T18:47:36.111Z,101322.00
2018-07-30T18:50:06.535Z,101326.00
2018-07-30T18:52:35.491Z,101329.00
2018-07-30T18:55:04.614Z,101326.00
2018-07-30T18:57:33.627Z,101339.00
2018-07-30T19:00:02.586Z,101336.00
2018-07-30T19:02:31.463Z,101342.00
2018-07-30T19:05:00.773Z,101343.00
2018-07-30T19:07:29.827Z,101349.00
2018-07-30T19:09:58.873Z,101348.00
2018-07-30T19:12:27.847Z,101368.00
2018-07-30T19:14:57.140Z,101368.00
2018-07-30T19:17:26.203Z,101367.00
2018-07-30T19:19:55.123Z,101369.00
2018-07-30T19:22:24.245Z,101372.00
2018-07-30T19:24:53.169Z,101364.00
2018-07-30T19:27:22.495Z,101371.00
2018-07-30T19:29:51.333Z,101378.00
2018-07-30T19:32:20.349Z,101384.00
2018-07-30T19:34:49.773Z,101388.00
2018-07-30T19:37:18.845Z,101379.00
2018-07-30T19:39:48.143Z,101387.00
2018-07-30T19:42:17.135Z,101387.00
2018-07-30T19:44:46.044Z,101392.00
2018-07-30T19:47:14.931Z,101394.00
2018-07-30T19:49:44.343Z,101394.00
2018-07-30T19:52:13.697Z,101394.00
2018-07-30T19:54:43.749Z,101399.00
2018-07-30T19:57:13.194Z,101396.00
2018-07-30T19:59:42.135Z,101394.00
2018-07-30T20:02:10.959Z,101404.00
2018-07-30T20:04:39.882Z,101406.00
2018-07-30T20:07:08.725Z,101413.00
2018-07-30T20:09:37.645Z,101403.00
2018-07-30T20:12:07.029Z,101408.00
2018-07-30T20:14:36.149Z,101403.00
2018-07-30T20:17:07.895Z,101410.00
2018-07-30T20:19:37.351Z,101405.00
2018-07-30T20:22:06.203Z,101404.00
2018-07-30T20:24:35.103Z,101413.00
2018-07-30T20:27:04.039Z,101409.00
2018-07-30T20:29:33.042Z,101419.00
2018-07-30T20:32:02.345Z,101415.00
2018-07-30T20:34:31.522Z,101411.00
2018-07-30T20:37:00.402Z,101413.00
2018-07-30T20:39:29.257Z,101411.00
2018-07-30T20:41:58.122Z,101413.00
2018-07-30T20:44:27.017Z,101422.00
2018-07-30T20:46:55.898Z,101430.00
2018-07-30T20:49:24.830Z,101427.00
2018-07-30T20:51:53.846Z,101422.00
2018-07-30T20:54:23.518Z,101425.00
2018-07-30T20:56:52.850Z,101419.00
2018-07-30T20:59:21.776Z,101435.00
2018-07-30T21:01:50.932Z,101436.00
2018-07-30T21:04:19.845Z,101435.00
2018-07-30T21:06:48.694Z,101433.00
2018-07-30T21:09:17.328Z,101428.00
2018-07-30T21:11:46.186Z,101434.00
2018-07-30T21:14:15.015Z,101431.00
2018-07-30T21:16:43.856Z,101438.00
2018-07-30T21:19:13.056Z,101429.00
2018-07-30T21:21:41.877Z,101430.00
2018-07-30T21:24:10.711Z,101439.00
2018-07-30T21:26:39.543Z,101430.00
2018-07-30T21:29:08.408Z,101432.00
2018-07-30T21:31:37.401Z,101428.00
2018-07-30T21:34:06.304Z,101428.00
2018-07-30T21:36:35.193Z,101430.00
2018-07-30T21:39:04.854Z,101435.00
2018-07-30T21:41:33.836Z,101429.00
2018-07-30T21:44:02.776Z,101438.00
2018-07-30T21:46:31.651Z,101434.00
2018-07-30T21:49:00.535Z,101432.00
2018-07-30T21:51:29.386Z,101428.00
2018-07-30T21:53:58.233Z,101430.00
2018-07-30T21:56:28.200Z,101425.00
2018-07-30T21:58:57.040Z,101437.00
2018-07-30T22:01:25.857Z,101423.00
2018-07-30T22:03:54.975Z,101434.00
2018-07-30T22:06:23.907Z,101426.00
2018-07-30T22:08:52.755Z,101431.00
2018-07-30T22:11:21.590Z,101428.00
2018-07-30T22:13:50.407Z,101428.00
2018-07-30T22:16:19.237Z,101434.00
2018-07-30T22:18:48.223Z,101437.00
2018-07-30T22:21:17.063Z,101426.00
2018-07-30T22:23:45.870Z,101421.00
2018-07-30T22:26:15.170Z,101430.00
2018-07-30T22:28:44.114Z,101427.00
2018-07-30T22:31:12.962Z,101429.00
2018-07-30T22:33:41.774Z,101437.00
2018-07-30T22:36:10.646Z,101436.00
2018-07-30T22:38:39.472Z,101436.00
2018-07-30T22:41:08.563Z,101435.00
2018-07-30T22:43:37.417Z,101437.00
2018-07-30T22:46:06.374Z,101442.00
2018-07-30T22:48:35.598Z,101431.00
2018-07-30T22:51:04.819Z,101437.00
2018-07-30T22:53:33.711Z,101435.00
2018-07-30T22:56:02.544Z,101432.00
2018-07-30T22:58:31.615Z,101432.00
2018-07-30T23:01:00.922Z,101433.00
2018-07-30T23:03:29.799Z,101427.00
2018-07-30T23:05:58.613Z,101424.00
2018-07-30T23:08:27.432Z,101430.00
2018-07-30T23:10:56.658Z,101429.00
2018-07-30T23:13:25.561Z,101416.00
2018-07-30T23:15:54.373Z,101422.00
2018-07-30T23:18:23.256Z,101430.00
2018-07-30T23:20:52.063Z,101420.00
2018-07-30T23:23:21.875Z,101418.00
2018-07-30T23:25:50.710Z,101419.00
2018-07-30T23:28:19.538Z,101421.00
2018-07-30T23:30:48.347Z,101424.00
2018-07-30T23:33:17.799Z,101416.00
2018-07-30T23:35:46.631Z,101413.00
2018-07-30T23:38:15.434Z,101424.00
2018-07-30T23:40:44.264Z,101428.00
2018-07-30T23:43:12.905Z,101429.00
2018-07-30T23:45:48.531Z,101428.00
2018-07-30T23:48:17.364Z,101417.00
2018-07-30T23:50:46.175Z,101420.00
2018-07-30T23:53:15.363Z,101431.00
2018-07-30T23:55:44.173Z,101424.00
2018-07-30T23:58:12.977Z,101424.00
